createdAt,value
2023-04-03T00:02:31.626Z,2.9
2023-04-03T00:08:23.151Z,2.8
2023-04-03T00:14:14.294Z,2.6
2023-04-03T00:20:06.501Z,2.3
2023-04-03T00:25:58.183Z,2.2
2023-04-03T00:31:49.873Z,1.9
2023-04-03T00:37:26.548Z,1.8
2023-04-03T00:43:18.045Z,1.6
2023-04-03T00:48:54.695Z,1.5
2023-04-03T00:54:29.968Z,1.4
2023-04-03T01:00:21.269Z,1.3
2023-04-03T01:06:14.251Z,1.1
2023-04-03T01:12:05.586Z,1
2023-04-03T01:17:57.367Z,0.9
2023-04-03T01:23:48.185Z,0.9
2023-04-03T01:29:39.780Z,0.9
2023-04-03T01:35:31.446Z,0.9
2023-04-03T01:41:22.696Z,0.9
2023-04-03T01:47:13.777Z,1.1
2023-04-03T01:53:05.599Z,1
2023-04-03T01:58:57.078Z,1.1
2023-04-03T02:04:48.986Z,1.1
2023-04-03T02:10:42.800Z,1.1
2023-04-03T02:16:34.727Z,1.1
2023-04-03T02:22:25.776Z,1
2023-04-03T02:28:16.830Z,0.9
2023-04-03T02:33:52.893Z,0.9
2023-04-03T02:39:44.177Z,0.8
2023-04-03T02:45:35.746Z,0.7
2023-04-03T02:51:28.041Z,0.7
2023-04-03T02:57:19.107Z,0.7
2023-04-03T03:03:12.977Z,0.6
2023-04-03T03:08:48.978Z,0.6
2023-04-03T03:14:39.901Z,0.5
2023-04-03T03:20:31.994Z,0.4
2023-04-03T03:26:23.030Z,0.4
2023-04-03T03:32:14.475Z,0.4
2023-04-03T03:38:06.329Z,0.3
2023-04-03T03:43:58.210Z,0.3
2023-04-03T03:49:36.039Z,0.2
2023-04-03T03:55:12.143Z,0.1
2023-04-03T04:01:03.264Z,0
2023-04-03T04:06:57.006Z,-0.1
2023-04-03T04:12:48.091Z,-0.1
2023-04-03T04:18:24.135Z,-0.1
2023-04-03T04:23:59.175Z,-0.1
2023-04-03T04:29:50.332Z,0
2023-04-03T04:35:41.674Z,0.1
2023-04-03T04:41:33.460Z,0.3
2023-04-03T04:47:25.104Z,0.4
2023-04-03T04:53:25.630Z,0.6
2023-04-03T04:59:17.495Z,0.8
2023-04-03T05:05:10.509Z,1.1
2023-04-03T05:10:47.167Z,1.4
2023-04-03T05:16:37.789Z,1.9
2023-04-03T05:22:29.441Z,2.6
2023-04-03T05:28:20.671Z,3.6
2023-04-03T05:34:13.975Z,4.7
2023-04-03T05:40:07.881Z,5.9
2023-04-03T05:46:01.791Z,7.1
2023-04-03T05:51:53.429Z,8.3
2023-04-03T05:57:46.260Z,9.2
2023-04-03T06:03:40.184Z,10.1
2023-04-03T06:09:33.477Z,11.1
2023-04-03T06:15:25.883Z,12.3
2023-04-03T06:21:17.132Z,13.3
2023-04-03T06:27:08.332Z,14.4
2023-04-03T06:33:00.301Z,15.5
2023-04-03T06:38:54.199Z,16.9
2023-04-03T06:44:46.744Z,18.4
2023-04-03T06:50:38.869Z,19.8
2023-04-03T06:56:31.294Z,21
2023-04-03T07:02:24.314Z,21.8
2023-04-03T07:08:16.406Z,22.8
2023-04-03T07:14:07.636Z,23.5
2023-04-03T07:19:59.243Z,24.4
2023-04-03T07:25:57.368Z,25.3
2023-04-03T07:31:48.916Z,27
2023-04-03T07:37:41.022Z,30.1
2023-04-03T07:43:32.460Z,34.5
2023-04-03T07:49:24.119Z,39.9
2023-04-03T07:54:59.853Z,43.8
2023-04-03T08:00:38.377Z,33.8
2023-04-03T08:06:42.527Z,28.7
2023-04-03T08:12:37.585Z,29.5
2023-04-03T08:18:14.936Z,31.8
2023-04-03T08:24:13.105Z,33.6
2023-04-03T08:30:17.981Z,35.6
2023-04-03T08:35:54.873Z,39.3
2023-04-03T08:41:47.087Z,40.3
2023-04-03T08:47:40.441Z,30.9
2023-04-03T08:53:38.449Z,29.6
2023-04-03T08:59:30.716Z,30.5
2023-04-03T09:05:24.352Z,31.6
2023-04-03T09:11:16.576Z,33
2023-04-03T09:17:22.574Z,34.4
2023-04-03T09:23:20.244Z,35.3
2023-04-03T09:29:23.071Z,35.6
2023-04-03T09:35:21.696Z,36.2
2023-04-03T09:41:08.145Z,36.6
2023-04-03T09:47:11.324Z,38
2023-04-03T09:53:13.092Z,41.3
2023-04-03T09:59:16.910Z,33.8
2023-04-03T10:05:25.263Z,29.8
2023-04-03T10:11:26.541Z,31.9
2023-04-03T10:17:31.329Z,33.4
2023-04-03T10:23:44.798Z,33.1
2023-04-03T10:29:39.431Z,32.4
2023-04-03T10:35:39.635Z,31.8
2023-04-03T10:41:33.916Z,30.9
2023-04-03T10:47:39.458Z,30.7
2023-04-03T10:53:23.627Z,30.5
2023-04-03T10:59:28.472Z,30.4
2023-04-03T11:05:24.834Z,30.3
2023-04-03T11:11:01.789Z,30
2023-04-03T11:16:47.348Z,29.1
2023-04-03T11:22:29.021Z,28.2
2023-04-03T11:28:20.448Z,26.9
2023-04-03T11:34:06.506Z,25.5
2023-04-03T11:40:00.184Z,23.9
2023-04-03T11:45:51.105Z,22.6
2023-04-03T11:58:49.307Z,20
2023-04-03T12:05:35.477Z,19.1
2023-04-03T12:11:55.020Z,18.4
2023-04-03T12:18:20.529Z,17.6
2023-04-03T12:30:47.864Z,16.6
2023-04-03T12:37:32.284Z,16.1
2023-04-03T12:44:01.887Z,15.6
2023-04-03T12:50:31.749Z,14.9
2023-04-03T12:56:41.014Z,14.4
2023-04-03T13:03:06.054Z,13.9
2023-04-03T13:09:32.031Z,13.4
2023-04-03T13:16:05.157Z,12.9
2023-04-03T13:22:35.072Z,12.5
2023-04-03T13:29:00.469Z,12.1
2023-04-03T13:34:49.268Z,11.9
2023-04-03T13:40:47.181Z,11.6
2023-04-03T13:46:30.399Z,11.4
2023-04-03T13:52:25.548Z,11.1
2023-04-03T13:58:13.782Z,10.9
2023-04-03T14:03:34.481Z,10.8
2023-04-03T14:09:19.640Z,10.6
2023-04-03T14:15:06.278Z,10.4
2023-04-03T14:20:50.569Z,10.4
2023-04-03T14:26:27.631Z,10.1
2023-04-03T14:32:14.131Z,10
2023-04-03T14:37:51.574Z,9.9
2023-04-03T14:43:34.651Z,9.8
2023-04-03T14:49:37.804Z,9.6
2023-04-03T14:55:36.814Z,9.5
2023-04-03T15:01:13.876Z,9.4
2023-04-03T15:06:54.467Z,9.3
2023-04-03T15:12:31.119Z,9.2
2023-04-03T15:18:26.269Z,9.1
2023-04-03T15:23:47.655Z,9
2023-04-03T15:29:08.444Z,8.9
2023-04-03T15:34:49.045Z,8.9
2023-04-03T15:40:47.523Z,8.8
2023-04-03T15:46:23.109Z,8.7
2023-04-03T15:51:59.437Z,8.6
2023-04-03T15:57:51.064Z,8.5
2023-04-03T16:03:28.681Z,8.4
2023-04-03T16:09:06.474Z,8.4
2023-04-03T16:14:42.753Z,8.3
2023-04-03T16:20:19.208Z,8.2
2023-04-03T16:25:56.381Z,8.1
2023-04-03T16:31:34.296Z,7.9
2023-04-03T16:37:30.523Z,7.9
2023-04-03T16:43:12.186Z,7.8
2023-04-03T16:49:07.384Z,7.7
2023-04-03T16:55:01.496Z,7.6
2023-04-03T17:00:42.891Z,7.6
2023-04-03T17:06:39.333Z,7.4
2023-04-03T17:12:38.046Z,7.4
2023-04-03T17:18:33.533Z,7.4
2023-04-03T17:24:27.945Z,7.3
2023-04-03T17:30:21.415Z,7.3
2023-04-03T17:36:04.008Z,7.2
2023-04-03T17:42:01.556Z,7.1
2023-04-03T17:47:59.356Z,7.1
2023-04-03T17:53:58.541Z,7
2023-04-03T17:59:58.088Z,6.9
2023-04-03T18:05:41.710Z,6.9
2023-04-03T18:11:41.366Z,6.9
2023-04-03T18:17:23.981Z,6.9
2023-04-03T18:23:42.123Z,6.9
2023-04-03T18:29:46.643Z,6.8
2023-04-03T18:35:48.007Z,6.8
2023-04-03T18:41:47.913Z,6.8
2023-04-03T18:47:33.060Z,6.8
2023-04-03T18:53:33.113Z,6.8
2023-04-03T18:59:34.034Z,6.8
2023-04-03T19:05:35.518Z,6.8
2023-04-03T19:11:35.863Z,6.8
2023-04-03T19:18:01.128Z,6.8
2023-04-03T19:24:02.304Z,6.7
2023-04-03T19:30:03.115Z,6.7
2023-04-03T19:36:02.578Z,6.7
2023-04-03T19:41:57.795Z,6.7
2023-04-03T19:48:02.253Z,6.6
2023-04-03T19:53:53.873Z,6.6
2023-04-03T19:59:46.044Z,6.7
2023-04-03T20:05:53.693Z,6.6
2023-04-03T20:11:45.845Z,6.6
2023-04-03T20:17:39.363Z,6.6
2023-04-03T20:23:18.007Z,6.6
2023-04-03T20:29:57.488Z,6.6
2023-04-03T20:35:31.531Z,6.6
2023-04-03T20:41:25.607Z,6.6
2023-04-03T20:47:28.758Z,6.6
2023-04-03T20:53:21.272Z,6.6
2023-04-03T20:59:22.525Z,6.6
2023-04-03T21:05:04.000Z,6.6
2023-04-03T21:10:58.515Z,6.6
2023-04-03T21:16:50.091Z,6.6
2023-04-03T21:22:42.135Z,6.6
2023-04-03T21:28:34.284Z,6.5
2023-04-03T21:34:26.580Z,6.5
2023-04-03T21:40:02.753Z,6.6
2023-04-03T21:45:54.406Z,6.5
2023-04-03T21:51:48.049Z,6.5
2023-04-03T21:57:39.278Z,6.5
2023-04-03T22:03:44.110Z,6.4
2023-04-03T22:09:34.969Z,6.5
2023-04-03T22:15:11.905Z,6.4
2023-04-03T22:21:03.503Z,6.4
2023-04-03T22:26:54.841Z,6.4
2023-04-03T22:32:46.551Z,6.4
2023-04-03T22:38:22.562Z,6.4
2023-04-03T22:43:58.459Z,6.4
2023-04-03T22:49:55.358Z,6.4
2023-04-03T22:55:53.142Z,6.4
2023-04-03T23:01:29.837Z,6.4
2023-04-03T23:07:21.769Z,6.4
2023-04-03T23:12:58.646Z,6.5
2023-04-03T23:18:35.191Z,6.5
2023-04-03T23:24:26.912Z,6.6
2023-04-03T23:30:18.388Z,6.6
2023-04-03T23:35:54.990Z,6.6
2023-04-03T23:41:47.730Z,6.6
2023-04-03T23:47:25.419Z,6.6
2023-04-03T23:53:02.047Z,6.6
2023-04-03T23:58:53.244Z,6.6
